Flight Track Log - Related Links

Times and Time Zones

All times are in EDT time to prevent confusion due to time zone crossing. See the EGF3994 flight status page for this flight to view local times or setup timezone preferences in your user account.


Time Position Orientation Groundspeed Altitude Reporting Facility
EDT Latitude Longitude Course Direction KTS MPH feet Rate Location/Type
Wed 06:51:45 PM 41.9667 -87.8500 90° East 179 206 2,300  Level Chicago TRACON
Wed 06:52:32 PM 41.9481 -87.8125 124° Southeast 200 230 4,300 1,706 Climbing Chicago Center
Wed 06:53:00 PM 41.9603 -87.4698 98° East  Level FlightAware Approximate
Wed 06:53:34 PM 41.9297 -87.7267 106° East 232 267 5,400  Level Chicago Center
Wed 06:54:00 PM 41.9472 -87.3273 95° East  Level FlightAware Approximate
Wed 06:54:36 PM 41.9347 -87.6050 87° East 276 318 8,300  Level Chicago Center
Wed 06:55:00 PM 41.9370 -87.1845 95° East  Level FlightAware Approximate
Wed 06:55:39 PM 41.9369 -87.4969 88° East 288 331 10,500  Level Chicago Center
Wed 06:56:00 PM 41.9333 -87.0412 90° East  Level FlightAware Approximate
Wed 06:56:41 PM 41.9400 -87.3778 88° East 316 364 12,600  Level Chicago Center
Wed 06:57:00 PM 41.9333 -86.9168 90° East  Level FlightAware Approximate
Wed 06:57:43 PM 41.9411 -87.2544 89° East 331 381 14,200  Level Chicago Center
Wed 06:58:45 PM 41.9444 -87.1158 88° East 372 428 14,700 774 Climbing Chicago Center
Wed 06:59:47 PM 41.9469 -86.9389 89° East 397 457 15,800 1,113 Climbing Chicago Center
Wed 07:00:49 PM 41.9494 -86.7897 89° East 401 461 17,000 1,258 Climbing Chicago Center
Wed 07:01:51 PM 41.9508 -86.6458 89° East 400 460 18,400 968 Climbing Chicago Center
Wed 07:02:53 PM 41.9528 -86.4925 89° East 411 473 19,000 823 Climbing Chicago Center
Wed 07:03:55 PM 41.9539 -86.3292 89° East 436 502 20,100 1,452 Climbing Chicago Center
Wed 07:04:57 PM 41.9281 -86.1453 101° East 431 496 22,000 1,392 Climbing Chicago Center
Wed 07:06:00 PM 41.8497 -86.0372 134° Southeast 411 473 23,000 480 Climbing Chicago Center
Wed 07:07:02 PM 41.7644 -85.9264 136° Southeast 422 486 23,000  Level Chicago Center
Wed 07:08:04 PM 41.6753 -85.8092 136° Southeast 445 512 23,000  Level Chicago Center
Wed 07:09:06 PM 41.5853 -85.6919 136° Southeast 455 524 23,000  Level Chicago Center
Wed 07:10:08 PM 41.4786 -85.5522 136° Southeast 458 527 23,000  Level Chicago Center
Wed 07:11:10 PM 41.3911 -85.4372 135° Southeast 451 519 23,000 -194 Level Chicago Center
Wed 07:12:12 PM 41.3022 -85.3250 136° Southeast 446 513 22,600 -1,016 Descending Chicago Center
Wed 07:13:14 PM 41.2139 -85.2103 136° Southeast 447 514 20,900 -1,645 Descending Chicago Center
Wed 07:14:16 PM 41.1278 -85.0983 136° Southeast 441 507 19,200 -1,887 Descending Chicago Center
Wed 07:15:18 PM 41.0292 -84.9742 136° Southeast 417 480 17,000 -1,984 Descending Chicago Center
Wed 07:16:20 PM 40.9472 -84.8719 137° Southeast 410 472 15,100 -968 Descending Chicago Center
Wed 07:17:22 PM 40.8686 -84.7681 135° Southeast 405 466 15,000 -48 Descending Chicago Center
Wed 07:18:24 PM 40.7908 -84.6700 136° Southeast 394 453 15,000 -226 Level Chicago Center
Wed 07:19:08 PM 40.7358 -84.5983 135° Southeast 388 447 14,600 -1,473 Descending Indianapolis Center
Wed 07:20:14 PM 40.6403 -84.4819 137° Southeast 379 436 12,300 -2,041 Descending Indianapolis Center
Wed 07:20:45 PM 40.5983 -84.4294 136° Southeast 383 441 11,300 -1,345 Descending Indianapolis Center
Wed 07:21:12 PM 40.5700 -84.3906 134° Southeast 376 433 11,000 -300 Descending Indianapolis Center
Wed 07:21:45 PM 40.5281 -84.3400 137° Southeast 351 404 11,000  Level Indianapolis Center
Wed 07:22:14 PM 40.4992 -84.3017 135° Southeast 355 409 11,000 -98 Level Indianapolis Center
Wed 07:22:46 PM 40.4597 -84.2511 136° Southeast 341 392 10,900 -393 Descending Indianapolis Center
Wed 07:23:15 PM 40.4319 -84.2144 135° Southeast 339 390 10,600 -492 Descending Indianapolis Center
Wed 07:23:47 PM 40.3969 -84.1689 135° Southeast 319 367 10,400 -484 Descending Indianapolis Center
Wed 07:24:17 PM 40.3697 -84.1331 135° Southeast 318 366 10,100 -393 Descending Indianapolis Center
Wed 07:24:48 PM 40.3264 -84.1047 154° Southeast 303 349 10,000 -97 Descending Indianapolis Center
Wed 07:25:19 PM 40.2914 -84.1003 174° South 309 356 10,000  Level Indianapolis Center
Wed 07:25:49 PM 40.2394 -84.0931 174° South 308 354 10,000  Level Indianapolis Center
Wed 07:26:21 PM 40.2061 -84.0889 175° South 306 352 10,000  Level Indianapolis Center
Wed 07:26:50 PM 40.1522 -84.0817 174° South 315 362 10,000  Level Indianapolis Center
Wed 07:27:23 PM 40.1172 -84.0775 175° South 317 365 10,000 -393 Level Indianapolis Center
Wed 07:27:51 PM 40.0728 -84.1067 207° Southwest 274 315 9,600 -1,452 Descending Indianapolis Center
Wed 07:28:25 PM 40.0506 -84.1508 237° Southwest 280 322 8,500 -1,967 Descending Indianapolis Center
Wed 07:28:52 PM 40.0308 -84.1883 236° Southwest 267 307 7,600 -2,032 Descending Indianapolis Center
Wed 07:29:27 PM 40.0089 -84.2311 236° Southwest 268 308 6,400 -1,574 Descending Indianapolis Center
Wed 07:29:53 PM 39.9889 -84.2672 234° Southwest 258 297 6,000 -387 Descending Indianapolis Center
Wed 07:30:29 PM 39.9686 -84.3078 237° Southwest 261 300 6,000  Level Indianapolis Center
Wed 07:30:47 PM 39.9519 -84.3386 235° Southwest 255 293 6,000 -290 Level Indianapolis Center
Wed 07:31:31 PM 39.9289 -84.3844 237° Southwest 257 296 5,700 -896 Descending Indianapolis Center
Wed 07:31:54 PM 39.9097 -84.4172 233° Southwest 248 285 5,000 -1,826 Descending Indianapolis Center

Login

Don't have an account? Register now (free) for customized features, flight alerts, and more!